首页
METAR-TAF:

METAR-TAF

机场 :

安斯巴赫, 德国

纬度: 49-19N, 经度: 010-38E, 海拔: 467米

当前天气观测

该预报发布于16分钟前的20:56 UTC
风速11节,风向东转东南
温度 21°C
湿度 78%
气压 1018 hPa
能见度10公里或以上
天空无云

METAR: ETEB 112056Z AUTO 12011KT 9999 CLR 21/17 A3007 RMK AO2 SLP172 T02050171 50006 $

时间: 23:12 (21:12 UTC)

预报

该预报发布于4小时和12分钟前的17:00 UTC
预报有效从11日的 17点(UTC)到 12日的 23点(UTC)
风速12节,风向东北
能见度10公里或以上
散云层高于5000英尺
成为
从 11日的 22点(UTC)到 11日的 23点(UTC)
风速6节,风向多变
能见度10公里或以上
少量云层高于5000英尺

TAF: ETEB 111700Z 1117/1223 04012KT 9999 SCT050 QNH3006INS BECMG 1122/1123 VRB06KT 9999 FEW050 QNH3005INS TX30/1215Z TN19/1203Z

超过4000个机场的气象观测和天气预报(METAR&TAF报告)。

可查询的气象台以黄色和红色小点在地图上表示。

将鼠标移到小点上方,可查看气象台名称。

然后点击查看天气观测和预报。

如需切换地图:点击带黑十字的绿色按钮放大地图;点击带横线的绿色按钮缩小地图;或者点击绿色箭头查看邻近地区的地图。


METAR-TAF: